createdAt,value
2018-03-28T00:01:45.604Z,28.00
2018-03-28T00:04:16.078Z,27.90
2018-03-28T00:06:46.555Z,28.00
2018-03-28T00:09:16.998Z,28.10
2018-03-28T00:11:48.087Z,28.20
2018-03-28T00:14:18.528Z,28.20
2018-03-28T00:16:49.120Z,28.30
2018-03-28T00:19:20.373Z,28.40
2018-03-28T00:21:51.699Z,28.50
2018-03-28T00:24:22.949Z,28.50
2018-03-28T00:26:54.187Z,28.50
2018-03-28T00:29:25.315Z,28.50
2018-03-28T00:31:57.509Z,28.70
2018-03-28T00:34:28.719Z,28.80
2018-03-28T00:36:59.198Z,28.80
2018-03-28T00:39:30.415Z,29.00
2018-03-28T00:42:00.863Z,29.00
2018-03-28T00:44:32.064Z,29.20
2018-03-28T00:47:02.576Z,29.20
2018-03-28T00:49:33.045Z,29.30
2018-03-28T00:52:03.492Z,29.30
2018-03-28T00:54:34.742Z,29.30
2018-03-28T00:57:05.195Z,29.20
2018-03-28T00:59:35.623Z,29.30
2018-03-28T01:02:06.066Z,29.30
2018-03-28T01:04:36.520Z,29.30
2018-03-28T01:07:07.656Z,29.40
2018-03-28T01:09:38.126Z,29.50
2018-03-28T01:12:08.591Z,29.60
2018-03-28T01:14:40.735Z,29.70
2018-03-28T01:17:11.219Z,29.60
2018-03-28T01:19:41.728Z,29.70
2018-03-28T01:22:12.256Z,29.80
2018-03-28T01:24:42.692Z,29.80
2018-03-28T01:27:13.185Z,29.70
2018-03-28T01:29:43.611Z,29.70
2018-03-28T01:32:14.846Z,29.60
2018-03-28T01:34:45.351Z,29.90
2018-03-28T01:37:16.622Z,29.60
2018-03-28T01:39:47.060Z,29.60
2018-03-28T01:42:17.532Z,29.60
2018-03-28T01:44:48.731Z,29.60
2018-03-28T01:47:19.204Z,29.60
2018-03-28T01:49:50.583Z,29.60
2018-03-28T01:52:21.229Z,29.60
2018-03-28T01:54:51.714Z,29.60
2018-03-28T01:57:23.836Z,29.70
2018-03-28T01:59:54.272Z,29.70
2018-03-28T02:02:25.547Z,29.70
2018-03-28T02:04:56.008Z,29.70
2018-03-28T02:07:26.439Z,29.70
2018-03-28T02:09:56.945Z,29.70
2018-03-28T02:12:28.203Z,29.60
2018-03-28T02:14:58.647Z,29.60
2018-03-28T02:17:29.095Z,29.60
2018-03-28T02:19:59.563Z,29.60
2018-03-28T02:22:31.315Z,29.60
2018-03-28T02:25:01.762Z,29.50
2018-03-28T02:27:32.989Z,29.70
2018-03-28T02:30:03.476Z,29.70
2018-03-28T02:32:33.987Z,29.70
2018-03-28T02:35:04.519Z,29.70
2018-03-28T02:37:35.008Z,29.80
2018-03-28T02:40:07.189Z,29.80
2018-03-28T02:42:38.593Z,29.80
2018-03-28T02:45:09.084Z,29.80
2018-03-28T02:47:39.526Z,29.80
2018-03-28T02:50:09.967Z,29.90
2018-03-28T02:52:40.438Z,30.00
2018-03-28T02:55:11.651Z,30.20
2018-03-28T02:57:42.099Z,30.20
2018-03-28T03:00:12.560Z,30.40
2018-03-28T03:02:43.008Z,30.60
2018-03-28T03:05:14.300Z,31.00
2018-03-28T03:07:44.759Z,31.00
2018-03-28T03:10:15.292Z,31.10
2018-03-28T03:12:45.818Z,31.20
2018-03-28T03:15:16.272Z,31.20
2018-03-28T03:17:46.743Z,31.20
2018-03-28T03:20:17.964Z,31.30
2018-03-28T03:22:48.438Z,31.30
2018-03-28T03:25:19.608Z,31.30
2018-03-28T03:27:50.079Z,31.30
2018-03-28T03:30:20.503Z,31.40
2018-03-28T03:32:51.916Z,31.40
2018-03-28T03:35:22.356Z,31.60
2018-03-28T03:37:53.035Z,31.70
2018-03-28T03:40:24.371Z,31.50
2018-03-28T03:42:55.618Z,31.40
2018-03-28T03:45:26.840Z,31.30
2018-03-28T03:47:57.318Z,31.30
2018-03-28T03:50:27.812Z,31.40
2018-03-28T03:52:58.293Z,31.50
2018-03-28T03:55:28.807Z,31.70
2018-03-28T03:57:59.316Z,31.80
2018-03-28T04:00:30.498Z,31.60
2018-03-28T04:03:01.276Z,31.60
2018-03-28T04:05:31.715Z,31.50
2018-03-28T04:08:02.971Z,31.40
2018-03-28T04:10:34.228Z,31.50
2018-03-28T04:13:05.634Z,31.50
2018-03-28T04:15:36.099Z,31.70
2018-03-28T04:18:06.599Z,31.80
2018-03-28T04:20:37.823Z,31.90
2018-03-28T04:23:08.252Z,31.90
2018-03-28T04:25:38.736Z,31.90
2018-03-28T04:28:09.287Z,31.90
2018-03-28T04:30:39.707Z,32.10
2018-03-28T04:33:10.171Z,32.20
2018-03-28T04:35:40.612Z,32.20
2018-03-28T04:38:11.402Z,32.10
2018-03-28T04:40:41.871Z,32.00
2018-03-28T04:43:12.337Z,32.00
2018-03-28T04:45:42.803Z,32.00
2018-03-28T04:48:13.235Z,32.00
2018-03-28T04:50:43.695Z,31.90
2018-03-28T04:53:15.023Z,31.60
2018-03-28T04:55:45.550Z,31.60
2018-03-28T04:58:16.019Z,31.50
2018-03-28T05:00:46.465Z,31.40
2018-03-28T05:03:16.903Z,31.30
2018-03-28T05:05:47.370Z,31.20
2018-03-28T05:08:18.628Z,31.10
2018-03-28T05:10:50.752Z,31.00
2018-03-28T05:13:21.246Z,31.00
2018-03-28T05:15:51.828Z,31.00
2018-03-28T05:18:22.314Z,31.20
2018-03-28T05:20:52.771Z,31.40
2018-03-28T05:23:23.223Z,31.50
2018-03-28T05:25:54.433Z,31.40
2018-03-28T05:28:25.179Z,31.40
2018-03-28T05:30:55.714Z,31.30
2018-03-28T05:33:26.460Z,31.20
2018-03-28T05:35:56.910Z,31.10
2018-03-28T05:38:28.151Z,31.00
2018-03-28T05:41:00.701Z,31.00
2018-03-28T05:43:31.146Z,30.90
2018-03-28T05:46:02.355Z,31.00
2018-03-28T05:48:33.767Z,31.00
2018-03-28T05:51:04.242Z,31.10
2018-03-28T05:53:34.724Z,31.20
2018-03-28T05:56:05.232Z,31.20
2018-03-28T05:58:36.451Z,31.50
2018-03-28T06:01:07.327Z,31.50
2018-03-28T06:03:37.792Z,31.60
2018-03-28T06:06:08.203Z,31.60
2018-03-28T06:08:38.677Z,31.70
2018-03-28T06:11:09.090Z,31.80
2018-03-28T06:13:39.527Z,31.90
2018-03-28T06:16:10.159Z,32.10
2018-03-28T06:18:40.620Z,32.30
2018-03-28T06:21:11.094Z,32.40
2018-03-28T06:23:41.576Z,32.50
2018-03-28T06:26:12.243Z,32.70
2018-03-28T06:28:42.688Z,32.90
2018-03-28T06:33:47.696Z,33.10
2018-03-28T06:36:18.168Z,33.10
2018-03-28T06:38:48.992Z,33.30
2018-03-28T06:41:19.909Z,33.40
2018-03-28T06:43:50.368Z,33.40
2018-03-28T06:46:20.872Z,33.50
2018-03-28T06:48:51.342Z,33.70
2018-03-28T06:51:22.555Z,34.00
2018-03-28T06:53:53.006Z,33.90
2018-03-28T06:56:23.538Z,34.00
2018-03-28T06:58:54.004Z,34.00
2018-03-28T07:01:24.470Z,34.00
2018-03-28T07:03:54.915Z,34.00
2018-03-28T07:06:25.362Z,33.90
2018-03-28T07:08:56.559Z,33.40
2018-03-28T07:11:27.030Z,33.40
2018-03-28T07:13:58.239Z,32.90
2018-03-28T07:16:28.718Z,32.80
2018-03-28T07:18:59.177Z,32.60
2018-03-28T07:21:29.707Z,32.40
2018-03-28T07:24:00.155Z,32.30
2018-03-28T07:26:30.633Z,32.20
2018-03-28T07:29:01.998Z,32.20
2018-03-28T07:31:32.495Z,32.20
2018-03-28T07:34:03.724Z,32.50
2018-03-28T07:36:34.306Z,32.50
2018-03-28T07:39:05.019Z,32.60
2018-03-28T07:41:35.515Z,32.70
2018-03-28T07:44:06.246Z,32.70
2018-03-28T07:46:36.728Z,32.80
2018-03-28T07:49:07.223Z,32.90
2018-03-28T07:51:38.440Z,32.90
2018-03-28T07:54:09.142Z,32.90
2018-03-28T07:56:39.603Z,32.90
2018-03-28T07:59:10.049Z,32.90
2018-03-28T08:01:41.864Z,33.30
2018-03-28T08:04:12.375Z,33.20
2018-03-28T08:06:43.580Z,33.60
2018-03-28T08:09:15.791Z,33.70
2018-03-28T08:11:46.229Z,33.70
2018-03-28T08:14:16.687Z,33.70
2018-03-28T08:16:47.224Z,33.70
2018-03-28T08:19:17.791Z,33.70
2018-03-28T08:21:48.235Z,33.80
2018-03-28T08:24:18.682Z,33.80
2018-03-28T08:26:49.105Z,33.80
2018-03-28T08:29:19.615Z,33.80
2018-03-28T08:31:50.158Z,33.70
2018-03-28T08:34:20.895Z,33.70
2018-03-28T08:36:51.380Z,33.80
2018-03-28T08:39:21.895Z,33.70
2018-03-28T08:41:53.977Z,33.60
2018-03-28T08:44:24.483Z,33.50
2018-03-28T08:46:55.719Z,33.30
2018-03-28T08:49:26.163Z,33.30
2018-03-28T08:51:57.442Z,33.10
2018-03-28T08:54:28.805Z,33.00
2018-03-28T08:56:59.284Z,32.90
2018-03-28T08:59:30.471Z,32.60
2018-03-28T09:02:01.227Z,32.70
2018-03-28T09:04:31.672Z,32.50
2018-03-28T09:07:02.409Z,32.40
2018-03-28T09:09:32.864Z,32.20
2018-03-28T09:12:03.341Z,32.10
2018-03-28T09:14:34.267Z,32.00
2018-03-28T09:17:04.850Z,31.90
2018-03-28T09:19:36.376Z,31.80
2018-03-28T09:22:06.952Z,31.70
2018-03-28T09:24:37.424Z,31.70
2018-03-28T09:27:07.907Z,31.60
2018-03-28T09:29:38.411Z,31.60
2018-03-28T09:32:09.615Z,31.50
2018-03-28T09:34:40.087Z,31.50
2018-03-28T09:37:10.686Z,31.40
2018-03-28T09:39:41.578Z,31.40
2018-03-28T09:42:12.800Z,31.30
2018-03-28T09:44:44.038Z,31.30
2018-03-28T09:47:15.453Z,31.20
2018-03-28T09:49:46.295Z,31.20
2018-03-28T09:52:16.844Z,31.20
2018-03-28T09:54:47.540Z,31.10
2018-03-28T09:57:18.052Z,31.10
2018-03-28T09:59:48.578Z,31.10
2018-03-28T10:02:19.317Z,31.10
2018-03-28T10:04:52.365Z,31.10
2018-03-28T10:07:26.133Z,31.20
2018-03-28T10:09:56.623Z,31.20
2018-03-28T10:12:27.076Z,31.30
2018-03-28T10:14:57.558Z,31.30
2018-03-28T10:17:28.790Z,31.30
2018-03-28T10:20:00.050Z,31.20
2018-03-28T10:22:31.278Z,31.20
2018-03-28T10:25:01.748Z,31.20
2018-03-28T10:27:32.163Z,31.10
2018-03-28T10:30:02.623Z,31.00
2018-03-28T10:32:33.064Z,31.00
2018-03-28T10:35:03.559Z,31.00
2018-03-28T10:37:34.043Z,30.90
2018-03-28T10:40:04.502Z,30.80
2018-03-28T10:42:34.964Z,30.80
2018-03-28T10:45:05.473Z,30.80
2018-03-28T10:47:36.003Z,30.80
2018-03-28T10:50:06.563Z,30.70
2018-03-28T10:52:37.379Z,30.60
2018-03-28T10:55:08.518Z,30.60
2018-03-28T10:57:39.027Z,30.50
2018-03-28T11:00:09.484Z,30.40
2018-03-28T11:02:39.984Z,30.40
2018-03-28T11:05:10.760Z,30.30
2018-03-28T11:07:43.136Z,30.30
2018-03-28T11:10:13.613Z,30.20
2018-03-28T11:12:45.033Z,30.20
2018-03-28T11:15:16.267Z,30.30
2018-03-28T11:17:46.855Z,30.30
2018-03-28T11:20:17.343Z,30.30
2018-03-28T11:22:49.479Z,30.30
2018-03-28T11:25:22.551Z,30.50
2018-03-28T11:30:27.482Z,30.10
2018-03-28T11:32:58.057Z,30.10
2018-03-28T11:35:28.542Z,30.00
2018-03-28T11:37:59.009Z,30.00
2018-03-28T11:40:30.620Z,30.00
2018-03-28T11:43:02.250Z,30.00
2018-03-28T11:45:33.683Z,29.90
2018-03-28T11:48:04.419Z,29.90
2018-03-28T11:50:41.809Z,29.80
2018-03-28T11:53:14.266Z,29.80
2018-03-28T11:55:53.324Z,29.80
2018-03-28T11:58:28.474Z,29.80
2018-03-28T12:01:00.754Z,29.70
2018-03-28T12:03:35.696Z,29.60
2018-03-28T12:06:09.626Z,29.50
2018-03-28T12:08:40.650Z,30.30
2018-03-28T12:11:12.420Z,29.40
2018-03-28T12:13:48.088Z,29.40
2018-03-28T12:16:22.689Z,29.40
2018-03-28T12:18:55.227Z,29.40
2018-03-28T12:21:26.211Z,29.30
2018-03-28T12:23:57.810Z,29.30
2018-03-28T12:26:28.649Z,29.40
2018-03-28T12:29:00.406Z,29.30
2018-03-28T12:31:34.215Z,29.30
2018-03-28T12:34:06.641Z,29.30
2018-03-28T12:36:38.105Z,29.30
2018-03-28T12:39:08.673Z,29.20
2018-03-28T12:41:39.903Z,29.20
2018-03-28T12:44:11.761Z,29.20
2018-03-28T12:46:43.004Z,29.20
2018-03-28T12:49:13.455Z,29.20
2018-03-28T12:51:44.688Z,29.20
2018-03-28T12:54:17.895Z,29.10
2018-03-28T12:56:48.358Z,29.10
2018-03-28T12:59:18.834Z,29.20
2018-03-28T13:01:50.060Z,29.10
2018-03-28T13:04:21.432Z,29.10
2018-03-28T13:06:52.651Z,29.00
2018-03-28T13:09:23.123Z,29.00
2018-03-28T13:11:53.600Z,29.00
2018-03-28T13:14:25.011Z,29.00
2018-03-28T13:16:55.524Z,29.00
2018-03-28T13:19:26.244Z,29.00
2018-03-28T13:21:59.863Z,29.00
2018-03-28T13:24:31.214Z,29.00
2018-03-28T13:27:03.984Z,29.10
2018-03-28T13:29:36.150Z,29.20
2018-03-28T13:32:09.029Z,29.20
2018-03-28T13:34:43.364Z,29.30
2018-03-28T13:37:14.151Z,29.30
2018-03-28T13:39:45.389Z,29.40
2018-03-28T13:42:18.007Z,29.40
2018-03-28T13:44:50.217Z,29.50
2018-03-28T13:47:23.179Z,29.50
2018-03-28T13:49:53.699Z,29.50
2018-03-28T13:52:25.327Z,29.40
2018-03-28T13:54:58.155Z,29.40
2018-03-28T13:57:28.648Z,29.50
2018-03-28T14:00:02.196Z,29.50
2018-03-28T14:02:36.593Z,29.50
2018-03-28T14:05:07.134Z,29.50
2018-03-28T14:07:38.464Z,29.50
2018-03-28T14:10:09.531Z,29.50
2018-03-28T14:12:40.803Z,29.50
2018-03-28T14:15:12.237Z,29.50
2018-03-28T14:17:44.094Z,29.60
2018-03-28T14:20:19.092Z,29.60
2018-03-28T14:22:53.100Z,29.60
2018-03-28T14:25:24.550Z,29.60
2018-03-28T14:27:58.877Z,29.60
2018-03-28T14:30:33.300Z,29.60
2018-03-28T14:33:05.549Z,29.60
2018-03-28T14:35:36.090Z,29.60
2018-03-28T14:38:07.620Z,29.60
2018-03-28T14:40:40.265Z,29.60
2018-03-28T14:43:13.720Z,29.60
2018-03-28T14:45:49.014Z,29.60
2018-03-28T14:48:20.723Z,29.60
2018-03-28T14:50:52.163Z,29.50
2018-03-28T14:53:24.123Z,29.50
2018-03-28T14:55:55.429Z,29.50
2018-03-28T14:58:26.032Z,29.50
2018-03-28T15:00:58.593Z,29.40
2018-03-28T15:03:29.865Z,29.40
2018-03-28T15:06:01.621Z,29.40
2018-03-28T15:08:32.121Z,29.40
2018-03-28T15:11:04.777Z,29.40
2018-03-28T15:13:42.025Z,29.50
2018-03-28T15:16:13.964Z,29.50
2018-03-28T15:18:47.176Z,29.50
2018-03-28T15:21:19.050Z,29.50
2018-03-28T15:23:54.468Z,29.60
2018-03-28T15:26:26.583Z,29.60
2018-03-28T15:28:57.760Z,29.60
2018-03-28T15:31:29.387Z,29.60
2018-03-28T15:34:00.945Z,29.60
2018-03-28T15:36:33.727Z,29.60
2018-03-28T15:39:10.005Z,29.60
2018-03-28T15:41:41.343Z,29.60
2018-03-28T15:44:12.547Z,29.60
2018-03-28T15:46:43.005Z,29.50
2018-03-28T15:49:15.572Z,29.50
2018-03-28T15:51:47.356Z,29.50
2018-03-28T15:54:17.840Z,29.50
2018-03-28T15:56:49.119Z,29.40
2018-03-28T15:59:21.167Z,29.40
2018-03-28T16:01:52.184Z,29.30
2018-03-28T16:04:23.510Z,29.30
2018-03-28T16:06:53.993Z,29.20
2018-03-28T16:09:25.202Z,29.10
2018-03-28T16:11:57.090Z,29.10
2018-03-28T16:14:27.562Z,29.00
2018-03-28T16:16:58.058Z,29.00
2018-03-28T16:19:29.283Z,28.90
2018-03-28T16:22:00.087Z,28.90
2018-03-28T16:24:30.539Z,28.80
2018-03-28T16:27:00.970Z,28.80
2018-03-28T16:29:32.895Z,28.80
2018-03-28T16:32:05.141Z,28.80
2018-03-28T16:34:40.637Z,28.80
2018-03-28T16:37:11.087Z,28.70
2018-03-28T16:39:43.120Z,28.60
2018-03-28T16:42:13.558Z,28.60
2018-03-28T16:44:43.995Z,28.60
2018-03-28T16:47:14.451Z,28.60
2018-03-28T16:49:47.515Z,28.70
2018-03-28T16:52:17.944Z,28.70
2018-03-28T16:54:49.167Z,28.70
2018-03-28T16:57:19.715Z,28.70
2018-03-28T16:59:50.146Z,28.60
2018-03-28T17:02:21.265Z,28.60
2018-03-28T17:04:51.749Z,28.50
2018-03-28T17:07:22.396Z,28.50
2018-03-28T17:09:52.967Z,28.50
2018-03-28T17:12:24.281Z,28.40
2018-03-28T17:14:54.927Z,28.40
2018-03-28T17:17:25.382Z,28.40
2018-03-28T17:19:57.009Z,28.40
2018-03-28T17:22:28.666Z,28.30
2018-03-28T17:24:59.164Z,28.30
2018-03-28T17:27:29.643Z,28.30
2018-03-28T17:30:00.099Z,28.20
2018-03-28T17:32:30.528Z,28.20
2018-03-28T17:35:00.953Z,28.20
2018-03-28T17:37:31.687Z,28.30
2018-03-28T17:40:03.188Z,28.20
2018-03-28T17:42:33.639Z,28.20
2018-03-28T17:45:04.133Z,28.20
2018-03-28T17:47:34.592Z,28.20
2018-03-28T17:50:05.050Z,28.10
2018-03-28T17:52:36.469Z,28.10
2018-03-28T17:55:07.817Z,28.10
2018-03-28T17:57:38.279Z,28.10
2018-03-28T18:00:09.480Z,28.10
2018-03-28T18:02:39.943Z,28.10
2018-03-28T18:05:10.389Z,28.10
2018-03-28T18:07:40.864Z,28.20
2018-03-28T18:10:11.336Z,28.20
2018-03-28T18:12:42.716Z,28.10
2018-03-28T18:15:13.160Z,28.10
2018-03-28T18:17:47.147Z,28.10
2018-03-28T18:20:17.592Z,28.00
2018-03-28T18:22:48.039Z,28.00
2018-03-28T18:25:18.509Z,27.90
2018-03-28T18:27:49.722Z,27.90
2018-03-28T18:30:20.915Z,27.80
2018-03-28T18:32:52.713Z,27.20
2018-03-28T18:35:25.646Z,27.80
2018-03-28T18:37:56.150Z,27.80
2018-03-28T18:40:27.466Z,27.80
2018-03-28T18:42:57.913Z,27.80
2018-03-28T18:45:29.992Z,27.90
2018-03-28T18:48:00.775Z,27.90
2018-03-28T18:50:31.198Z,27.90
2018-03-28T18:53:01.665Z,27.90
2018-03-28T18:55:32.879Z,27.90
2018-03-28T18:58:03.412Z,27.90
2018-03-28T19:00:34.438Z,27.90
2018-03-28T19:03:04.940Z,28.00
2018-03-28T19:05:35.360Z,28.00
2018-03-28T19:08:07.092Z,28.00
2018-03-28T19:10:38.626Z,28.10
2018-03-28T19:13:09.057Z,28.10
2018-03-28T19:15:39.519Z,28.20
2018-03-28T19:18:10.215Z,28.20
2018-03-28T19:20:40.693Z,28.20
2018-03-28T19:23:11.119Z,28.20
2018-03-28T19:25:41.646Z,28.20
2018-03-28T19:28:12.084Z,28.20
2018-03-28T19:30:42.527Z,28.20
2018-03-28T19:33:12.943Z,28.20
2018-03-28T19:35:44.144Z,28.10
2018-03-28T19:38:15.346Z,28.10
2018-03-28T19:40:45.823Z,28.10
2018-03-28T19:43:16.280Z,28.00
2018-03-28T19:45:47.091Z,28.00
2018-03-28T19:48:17.568Z,28.00
2018-03-28T19:50:48.039Z,27.90
2018-03-28T19:53:19.249Z,27.90
2018-03-28T19:55:50.708Z,27.90
2018-03-28T19:58:21.140Z,27.90
2018-03-28T20:00:52.356Z,27.90
2018-03-28T20:03:22.796Z,27.90
2018-03-28T20:05:53.576Z,27.80
2018-03-28T20:08:24.024Z,27.80
2018-03-28T20:10:54.483Z,27.80
2018-03-28T20:13:24.928Z,27.80
2018-03-28T20:15:56.271Z,27.70
2018-03-28T20:18:27.250Z,27.70
2018-03-28T20:20:57.683Z,27.70
2018-03-28T20:23:28.115Z,27.70
2018-03-28T20:25:59.424Z,27.70
2018-03-28T20:28:30.617Z,27.70
2018-03-28T20:31:01.063Z,27.70
2018-03-28T20:33:31.512Z,27.70
2018-03-28T20:36:01.939Z,27.70
2018-03-28T20:38:33.495Z,27.70
2018-03-28T20:41:04.395Z,27.70
2018-03-28T20:43:34.848Z,27.70
2018-03-28T20:46:05.339Z,27.70
2018-03-28T20:48:35.815Z,27.70
2018-03-28T20:51:07.514Z,27.70
2018-03-28T20:53:39.107Z,27.70
2018-03-28T20:56:09.563Z,27.60
2018-03-28T20:58:40.743Z,27.60
2018-03-28T21:01:11.187Z,27.50
2018-03-28T21:03:41.624Z,27.50
2018-03-28T21:06:12.070Z,27.50
2018-03-28T21:08:42.495Z,27.40
2018-03-28T21:11:12.899Z,27.40
2018-03-28T21:13:43.330Z,27.40
2018-03-28T21:16:13.768Z,27.40
2018-03-28T21:18:44.217Z,27.40
2018-03-28T21:21:14.863Z,27.50
2018-03-28T21:23:45.360Z,27.50
2018-03-28T21:26:15.816Z,27.50
2018-03-28T21:28:47.036Z,27.40
2018-03-28T21:31:19.239Z,27.40
2018-03-28T21:33:49.665Z,27.40
2018-03-28T21:36:20.139Z,27.40
2018-03-28T21:38:50.594Z,27.40
2018-03-28T21:41:21.815Z,27.30
2018-03-28T21:43:52.265Z,27.30
2018-03-28T21:46:23.581Z,27.30
2018-03-28T21:48:54.071Z,27.30
2018-03-28T21:51:24.499Z,27.20
2018-03-28T21:53:54.903Z,27.20
2018-03-28T21:56:26.131Z,27.20
2018-03-28T21:58:56.563Z,27.20
2018-03-28T22:01:28.740Z,27.20
2018-03-28T22:04:00.891Z,27.20
2018-03-28T22:06:31.335Z,27.20
2018-03-28T22:09:02.855Z,27.20
2018-03-28T22:11:33.303Z,27.20
2018-03-28T22:14:04.540Z,27.30
2018-03-28T22:16:34.975Z,27.20
2018-03-28T22:19:06.322Z,27.30
2018-03-28T22:21:38.479Z,27.30
2018-03-28T22:24:08.963Z,27.30
2018-03-28T22:26:39.494Z,27.30
2018-03-28T22:29:09.954Z,27.30
2018-03-28T22:31:40.423Z,27.30
2018-03-28T22:34:10.871Z,27.20
2018-03-28T22:36:42.511Z,27.20
2018-03-28T22:39:14.624Z,27.30
2018-03-28T22:41:45.067Z,27.30
2018-03-28T22:44:15.475Z,27.60
2018-03-28T22:46:45.934Z,27.30
2018-03-28T22:49:17.132Z,27.30
2018-03-28T22:51:47.600Z,27.30
2018-03-28T22:54:18.812Z,27.30
2018-03-28T22:56:49.304Z,27.30
2018-03-28T22:59:19.737Z,27.30
2018-03-28T23:01:50.410Z,27.30
2018-03-28T23:04:20.856Z,27.40
2018-03-28T23:06:51.315Z,27.40
2018-03-28T23:09:22.055Z,27.40
2018-03-28T23:11:52.808Z,27.30
2018-03-28T23:14:23.424Z,27.30
2018-03-28T23:16:53.852Z,27.30
2018-03-28T23:19:24.485Z,27.30
2018-03-28T23:21:54.935Z,27.30
2018-03-28T23:24:27.186Z,27.40
2018-03-28T23:26:59.327Z,27.40
2018-03-28T23:29:30.087Z,27.40
2018-03-28T23:32:00.534Z,27.40
2018-03-28T23:34:30.959Z,27.40
2018-03-28T23:37:01.823Z,27.40
2018-03-28T23:39:33.047Z,27.40
2018-03-28T23:42:03.503Z,27.40
2018-03-28T23:44:34.757Z,27.40
2018-03-28T23:47:05.963Z,27.40
2018-03-28T23:49:36.401Z,27.40
2018-03-28T23:52:06.858Z,27.40
2018-03-28T23:54:38.073Z,27.50
2018-03-28T23:57:09.154Z,27.50
2018-03-28T23:59:40.490Z,27.60
